New Mighty — 3FMN — position and weather

sailwx.info

Track history (hours):
 
Tides and Currents Weather Stations Pressure Air Temp Water Temp Dewpoint Dewpoint Depression Visibility Wind Speed Wind Dir Waves Ship Positions

New Mighty

Last reported at 2016-Jun-28 01:23 UTC. Time now 2016-Jul-02 04:00 UTC.
Position N 36°47' E 123°29'.

Length 292 m; draft 8.7 m.

Type: Cargo ship. MMSI: 354199000.

Date/timePositionNaut miles runAvg speedWind from/ knotsBaromVisibWave heightAir tempDewpointWater temp
2016-Jun-28 01:23N 36°47' E 123°29'1413.8
2016-Jun-28 00:24N 37°00' E 123°29'1113.2
2016-Jun-27 23:33N 37°11' E 123°29'1212.0
2016-Jun-27 22:33N 37°23' E 123°25'1413.9
2016-Jun-27 21:33N 37°30' E 123°10'1414.0
2016-Jun-27 20:33N 37°37' E 122°54'1414.1
2016-Jun-27 19:33N 37°44' E 122°39'1413.9
2016-Jun-27 18:33N 37°51' E 122°24'1413.5
2016-Jun-27 17:32N 37°58' E 122°09'1313.6
2016-Jun-27 16:33N 38°05' E 121°54'1313.5
2016-Jun-27 15:33N 38°12' E 121°40'1413.7
2016-Jun-27 14:33N 38°18' E 121°24'1513.7
2016-Jun-27 13:29N 38°26' E 121°09'1313.2
2016-Jun-27 12:33N 38°33' E 120°55'3411.5
2016-Jun-27 09:33N 38°58' E 120°26'1211.7
2016-Jun-27 08:33N 39°10' E 120°22'1212.3
2016-Jun-27 07:33N 39°21' E 120°16'  
2016-Jun-24 07:33N 39°55' E 119°40'0 0.0
2016-Jun-24 04:33N 39°55' E 119°40'0 0.0
2016-Jun-24 03:33N 39°55' E 119°40'0 0.0
2016-Jun-24 02:21N 39°55' E 119°40'0 0.0
2016-Jun-24 01:33N 39°55' E 119°40'0 0.0
2016-Jun-24 00:33N 39°55' E 119°40'0 0.0
2016-Jun-23 23:33N 39°55' E 119°40'0 0.0
2016-Jun-23 22:33N 39°55' E 119°40'0 0.0
2016-Jun-23 21:33N 39°55' E 119°40'0 0.0
2016-Jun-23 20:27N 39°55' E 119°40'0 0.0
2016-Jun-23 19:33N 39°55' E 119°40'0 0.0
2016-Jun-23 18:27N 39°55' E 119°40'0 0.0
2016-Jun-23 17:33N 39°55' E 119°40'0 0.0
2016-Jun-23 16:33N 39°55' E 119°40'0 0.0
2016-Jun-23 15:33N 39°55' E 119°40'0 0.0
2016-Jun-23 14:33N 39°55' E 119°40'0 0.0
2016-Jun-23 13:33N 39°55' E 119°40'0 0.0
2016-Jun-23 12:27N 39°55' E 119°40'0 0.0
2016-Jun-23 11:33N 39°55' E 119°40'0 0.0
2016-Jun-23 10:33N 39°55' E 119°40'0 0.0
2016-Jun-23 09:33N 39°55' E 119°40'0 0.0
2016-Jun-23 08:33N 39°55' E 119°40'0 0.0
2016-Jun-23 07:33N 39°55' E 119°40'0 0.0
2016-Jun-23 05:27N 39°55' E 119°40'0 0.0
2016-Jun-23 04:33N 39°55' E 119°40'0 0.0
2016-Jun-23 03:33N 39°55' E 119°40'0 0.0
2016-Jun-23 02:33N 39°55' E 119°40'0 0.0
2016-Jun-23 01:33N 39°55' E 119°40'0 0.0
2016-Jun-23 00:33N 39°55' E 119°40'0 0.0
2016-Jun-22 23:33N 39°55' E 119°40'0 0.0
2016-Jun-22 22:33N 39°55' E 119°40'0 0.0
2016-Jun-22 21:33N 39°55' E 119°40'0 0.0
2016-Jun-22 20:33N 39°55' E 119°40'0 0.0
2016-Jun-22 18:15N 39°55' E 119°40'0 0.0
2016-Jun-22 17:33N 39°55' E 119°40'0 0.0
2016-Jun-22 15:33N 39°55' E 119°40'0 0.0
2016-Jun-22 14:15N 39°55' E 119°40'0 0.0
2016-Jun-22 13:33N 39°55' E 119°40'0 0.0
2016-Jun-22 12:33N 39°55' E 119°40'0 0.0
2016-Jun-22 11:33N 39°55' E 119°40'0 0.0
2016-Jun-22 10:21N 39°55' E 119°40'0 0.0
2016-Jun-22 09:27N 39°55' E 119°40'0 0.0
2016-Jun-22 08:33N 39°55' E 119°40'0 0.0
2016-Jun-22 07:33N 39°55' E 119°40'0 0.0
2016-Jun-22 06:33N 39°55' E 119°40'0 0.0
2016-Jun-22 05:27N 39°55' E 119°40'0 0.0
2016-Jun-22 04:33N 39°55' E 119°40'0 0.0
2016-Jun-22 03:33N 39°55' E 119°40'0 0.0
2016-Jun-22 01:27N 39°55' E 119°40'1 0.7
2016-Jun-22 00:33N 39°55' E 119°40'6 6.2
2016-Jun-21 23:33N 39°50' E 119°45'5 5.2
2016-Jun-21 22:33N 39°45' E 119°49'2 1.9
2016-Jun-21 21:18N 39°44' E 119°51'0 0.0
2016-Jun-21 20:30N 39°44' E 119°51'0 0.0
2016-Jun-21 19:30N 39°44' E 119°51'0 0.1
2016-Jun-21 18:30N 39°44' E 119°51'0 0.2
2016-Jun-21 17:12N 39°44' E 119°51'0 0.1
2016-Jun-21 16:30N 39°44' E 119°51'0 0.0
2016-Jun-21 15:30N 39°44' E 119°51'0 0.0
2016-Jun-21 14:18N 39°44' E 119°51'0 0.0
2016-Jun-21 13:30N 39°44' E 119°51'0 0.0
2016-Jun-21 12:30N 39°44' E 119°51'0 0.2
2016-Jun-21 11:12N 39°44' E 119°51'0 0.2
2016-Jun-21 10:12N 39°44' E 119°51'0 0.1
2016-Jun-21 09:30N 39°44' E 119°51'0 0.0
2016-Jun-21 08:24N 39°44' E 119°51'0 0.0
2016-Jun-21 07:30N 39°44' E 119°51'0 0.1
2016-Jun-21 02:18N 39°44' E 119°51'0 0.0
2016-Jun-21 00:30N 39°44' E 119°51'0 0.0
2016-Jun-20 18:30N 39°44' E 119°51'0 0.1
2016-Jun-20 17:30N 39°44' E 119°51'0 0.2
2016-Jun-20 16:24N 39°44' E 119°51'0 0.1
2016-Jun-20 15:30N 39°44' E 119°51'0 0.0
2016-Jun-20 14:30N 39°44' E 119°51'0 0.0
2016-Jun-20 13:30N 39°44' E 119°51'0 0.1
2016-Jun-20 12:30N 39°44' E 119°51'0 0.1
2016-Jun-20 11:30N 39°44' E 119°51'0 0.1
2016-Jun-20 08:06N 39°44' E 119°51'0 0.1
2016-Jun-20 07:30N 39°44' E 119°51'0 0.0
2016-Jun-20 06:30N 39°44' E 119°51'0 0.0
2016-Jun-20 05:30N 39°44' E 119°51'0 0.1
2016-Jun-20 04:30N 39°44' E 119°51'0 0.2
2016-Jun-20 03:24N 39°44' E 119°51'0 0.1
2016-Jun-20 02:18N 39°44' E 119°51'0 0.1
2016-Jun-20 01:30N 39°44' E 119°51'0 0.1
2016-Jun-20 00:30N 39°44' E 119°51'0 0.0
2016-Jun-19 23:24N 39°44' E 119°51'0 0.1
2016-Jun-19 22:24N 39°44' E 119°51'0 0.1
2016-Jun-19 21:12N 39°44' E 119°51'0 0.0
2016-Jun-19 20:30N 39°44' E 119°51'0 0.0
2016-Jun-19 19:24N 39°44' E 119°51'0 0.0
2016-Jun-19 18:30N 39°44' E 119°51'0 0.1
2016-Jun-19 17:30N 39°44' E 119°51'0 0.2
2016-Jun-19 16:33N 39°44' E 119°51'0 0.2
2016-Jun-19 15:24N 39°44' E 119°51'0 0.0
2016-Jun-19 14:30N 39°44' E 119°51'0 0.0
2016-Jun-19 13:30N 39°44' E 119°51'0 0.0
2016-Jun-19 12:24N 39°44' E 119°51'0 0.0
2016-Jun-19 11:24N 39°44' E 119°51'0 0.0
2016-Jun-19 10:30N 39°44' E 119°51'0 0.2
2016-Jun-19 09:18N 39°44' E 119°51'0 0.1
2016-Jun-19 08:30N 39°44' E 119°51'0 0.0
2016-Jun-19 07:30N 39°44' E 119°51'0 0.0
2016-Jun-19 06:24N 39°44' E 119°51'0 0.0
2016-Jun-19 05:30N 39°44' E 119°51'0 0.1
2016-Jun-19 04:30N 39°44' E 119°51'0 0.1
2016-Jun-19 03:30N 39°44' E 119°51'0 0.2
2016-Jun-19 02:24N 39°44' E 119°51'0 0.1
2016-Jun-19 01:30N 39°44' E 119°51'0 0.0
2016-Jun-19 00:30N 39°44' E 119°51'0 0.1
2016-Jun-18 23:30N 39°44' E 119°51'0 0.1
2016-Jun-18 22:30N 39°44' E 119°51'0 0.0
2016-Jun-18 13:30N 39°44' E 119°51'0 0.0
2016-Jun-18 12:30N 39°44' E 119°51'0 0.1
2016-Jun-18 11:24N 39°44' E 119°51'0 0.2
2016-Jun-18 10:30N 39°44' E 119°51'0 0.2
2016-Jun-18 09:18N 39°44' E 119°51'0 0.0
2016-Jun-18 08:12N 39°44' E 119°51'0 0.1
2016-Jun-18 07:30N 39°44' E 119°51'0 0.0
2016-Jun-18 06:30N 39°44' E 119°51'0 0.0
2016-Jun-18 05:24N 39°44' E 119°51'0 0.1
2016-Jun-18 04:30N 39°44' E 119°51'0 0.0
2016-Jun-18 03:30N 39°44' E 119°51'0 0.2
2016-Jun-18 02:30N 39°44' E 119°51'0 0.2
2016-Jun-18 01:24N 39°44' E 119°51'  
Track history (hours):
 
Tides and Currents Weather Stations Pressure Air Temp Water Temp Dewpoint Dewpoint Depression Visibility Wind Speed Wind Dir Waves Ship Positions

New Mighty

Last reported at 2016-Jun-28 01:23 UTC. Time now 2016-Jul-02 04:00 UTC.
Position N 36°47' E 123°29'.

Length 292 m; draft 8.7 m.

Type: Cargo ship. MMSI: 354199000.

Date/timePositionNaut miles runAvg speedWind from/ knotsBaromVisibWave heightAir tempDewpointWater temp
2016-Jun-28 01:23N 36°47' E 123°29'1413.8
2016-Jun-28 00:24N 37°00' E 123°29'1113.2
2016-Jun-27 23:33N 37°11' E 123°29'1212.0
2016-Jun-27 22:33N 37°23' E 123°25'1413.9
2016-Jun-27 21:33N 37°30' E 123°10'1414.0
2016-Jun-27 20:33N 37°37' E 122°54'1414.1
2016-Jun-27 19:33N 37°44' E 122°39'1413.9
2016-Jun-27 18:33N 37°51' E 122°24'1413.5
2016-Jun-27 17:32N 37°58' E 122°09'1313.6
2016-Jun-27 16:33N 38°05' E 121°54'1313.5
2016-Jun-27 15:33N 38°12' E 121°40'1413.7
2016-Jun-27 14:33N 38°18' E 121°24'1513.7
2016-Jun-27 13:29N 38°26' E 121°09'1313.2
2016-Jun-27 12:33N 38°33' E 120°55'3411.5
2016-Jun-27 09:33N 38°58' E 120°26'1211.7
2016-Jun-27 08:33N 39°10' E 120°22'1212.3
2016-Jun-27 07:33N 39°21' E 120°16'  
2016-Jun-24 07:33N 39°55' E 119°40'0 0.0
2016-Jun-24 04:33N 39°55' E 119°40'0 0.0
2016-Jun-24 03:33N 39°55' E 119°40'0 0.0
2016-Jun-24 02:21N 39°55' E 119°40'0 0.0
2016-Jun-24 01:33N 39°55' E 119°40'0 0.0
2016-Jun-24 00:33N 39°55' E 119°40'0 0.0
2016-Jun-23 23:33N 39°55' E 119°40'0 0.0
2016-Jun-23 22:33N 39°55' E 119°40'0 0.0
2016-Jun-23 21:33N 39°55' E 119°40'0 0.0
2016-Jun-23 20:27N 39°55' E 119°40'0 0.0
2016-Jun-23 19:33N 39°55' E 119°40'0 0.0
2016-Jun-23 18:27N 39°55' E 119°40'0 0.0
2016-Jun-23 17:33N 39°55' E 119°40'0 0.0
2016-Jun-23 16:33N 39°55' E 119°40'0 0.0
2016-Jun-23 15:33N 39°55' E 119°40'0 0.0
2016-Jun-23 14:33N 39°55' E 119°40'0 0.0
2016-Jun-23 13:33N 39°55' E 119°40'0 0.0
2016-Jun-23 12:27N 39°55' E 119°40'0 0.0
2016-Jun-23 11:33N 39°55' E 119°40'0 0.0
2016-Jun-23 10:33N 39°55' E 119°40'0 0.0
2016-Jun-23 09:33N 39°55' E 119°40'0 0.0
2016-Jun-23 08:33N 39°55' E 119°40'0 0.0
2016-Jun-23 07:33N 39°55' E 119°40'0 0.0
2016-Jun-23 05:27N 39°55' E 119°40'0 0.0
2016-Jun-23 04:33N 39°55' E 119°40'0 0.0
2016-Jun-23 03:33N 39°55' E 119°40'0 0.0
2016-Jun-23 02:33N 39°55' E 119°40'0 0.0
2016-Jun-23 01:33N 39°55' E 119°40'0 0.0
2016-Jun-23 00:33N 39°55' E 119°40'0 0.0
2016-Jun-22 23:33N 39°55' E 119°40'0 0.0
2016-Jun-22 22:33N 39°55' E 119°40'0 0.0
2016-Jun-22 21:33N 39°55' E 119°40'0 0.0
2016-Jun-22 20:33N 39°55' E 119°40'0 0.0
2016-Jun-22 18:15N 39°55' E 119°40'0 0.0
2016-Jun-22 17:33N 39°55' E 119°40'0 0.0
2016-Jun-22 15:33N 39°55' E 119°40'0 0.0
2016-Jun-22 14:15N 39°55' E 119°40'0 0.0
2016-Jun-22 13:33N 39°55' E 119°40'0 0.0
2016-Jun-22 12:33N 39°55' E 119°40'0 0.0
2016-Jun-22 11:33N 39°55' E 119°40'0 0.0
2016-Jun-22 10:21N 39°55' E 119°40'0 0.0
2016-Jun-22 09:27N 39°55' E 119°40'0 0.0
2016-Jun-22 08:33N 39°55' E 119°40'0 0.0
2016-Jun-22 07:33N 39°55' E 119°40'0 0.0
2016-Jun-22 06:33N 39°55' E 119°40'0 0.0
2016-Jun-22 05:27N 39°55' E 119°40'0 0.0
2016-Jun-22 04:33N 39°55' E 119°40'0 0.0
2016-Jun-22 03:33N 39°55' E 119°40'0 0.0
2016-Jun-22 01:27N 39°55' E 119°40'1 0.7
2016-Jun-22 00:33N 39°55' E 119°40'6 6.2
2016-Jun-21 23:33N 39°50' E 119°45'5 5.2
2016-Jun-21 22:33N 39°45' E 119°49'2 1.9
2016-Jun-21 21:18N 39°44' E 119°51'0 0.0
2016-Jun-21 20:30N 39°44' E 119°51'0 0.0
2016-Jun-21 19:30N 39°44' E 119°51'0 0.1
2016-Jun-21 18:30N 39°44' E 119°51'0 0.2
2016-Jun-21 17:12N 39°44' E 119°51'0 0.1
2016-Jun-21 16:30N 39°44' E 119°51'0 0.0
2016-Jun-21 15:30N 39°44' E 119°51'0 0.0
2016-Jun-21 14:18N 39°44' E 119°51'0 0.0
2016-Jun-21 13:30N 39°44' E 119°51'0 0.0
2016-Jun-21 12:30N 39°44' E 119°51'0 0.2
2016-Jun-21 11:12N 39°44' E 119°51'0 0.2
2016-Jun-21 10:12N 39°44' E 119°51'0 0.1
2016-Jun-21 09:30N 39°44' E 119°51'0 0.0
2016-Jun-21 08:24N 39°44' E 119°51'0 0.0
2016-Jun-21 07:30N 39°44' E 119°51'0 0.1
2016-Jun-21 02:18N 39°44' E 119°51'0 0.0
2016-Jun-21 00:30N 39°44' E 119°51'0 0.0
2016-Jun-20 18:30N 39°44' E 119°51'0 0.1
2016-Jun-20 17:30N 39°44' E 119°51'0 0.2
2016-Jun-20 16:24N 39°44' E 119°51'0 0.1
2016-Jun-20 15:30N 39°44' E 119°51'0 0.0
2016-Jun-20 14:30N 39°44' E 119°51'0 0.0
2016-Jun-20 13:30N 39°44' E 119°51'0 0.1
2016-Jun-20 12:30N 39°44' E 119°51'0 0.1
2016-Jun-20 11:30N 39°44' E 119°51'0 0.1
2016-Jun-20 08:06N 39°44' E 119°51'0 0.1
2016-Jun-20 07:30N 39°44' E 119°51'0 0.0
2016-Jun-20 06:30N 39°44' E 119°51'0 0.0
2016-Jun-20 05:30N 39°44' E 119°51'0 0.1
2016-Jun-20 04:30N 39°44' E 119°51'0 0.2
2016-Jun-20 03:24N 39°44' E 119°51'0 0.1
2016-Jun-20 02:18N 39°44' E 119°51'0 0.1
2016-Jun-20 01:30N 39°44' E 119°51'0 0.1
2016-Jun-20 00:30N 39°44' E 119°51'0 0.0
2016-Jun-19 23:24N 39°44' E 119°51'0 0.1
2016-Jun-19 22:24N 39°44' E 119°51'0 0.1
2016-Jun-19 21:12N 39°44' E 119°51'0 0.0
2016-Jun-19 20:30N 39°44' E 119°51'0 0.0
2016-Jun-19 19:24N 39°44' E 119°51'0 0.0
2016-Jun-19 18:30N 39°44' E 119°51'0 0.1
2016-Jun-19 17:30N 39°44' E 119°51'0 0.2
2016-Jun-19 16:33N 39°44' E 119°51'0 0.2
2016-Jun-19 15:24N 39°44' E 119°51'0 0.0
2016-Jun-19 14:30N 39°44' E 119°51'0 0.0
2016-Jun-19 13:30N 39°44' E 119°51'0 0.0
2016-Jun-19 12:24N 39°44' E 119°51'0 0.0
2016-Jun-19 11:24N 39°44' E 119°51'0 0.0
2016-Jun-19 10:30N 39°44' E 119°51'0 0.2
2016-Jun-19 09:18N 39°44' E 119°51'0 0.1
2016-Jun-19 08:30N 39°44' E 119°51'0 0.0
2016-Jun-19 07:30N 39°44' E 119°51'0 0.0
2016-Jun-19 06:24N 39°44' E 119°51'0 0.0
2016-Jun-19 05:30N 39°44' E 119°51'0 0.1
2016-Jun-19 04:30N 39°44' E 119°51'0 0.1
2016-Jun-19 03:30N 39°44' E 119°51'0 0.2
2016-Jun-19 02:24N 39°44' E 119°51'0 0.1
2016-Jun-19 01:30N 39°44' E 119°51'0 0.0
2016-Jun-19 00:30N 39°44' E 119°51'0 0.1
2016-Jun-18 23:30N 39°44' E 119°51'0 0.1
2016-Jun-18 22:30N 39°44' E 119°51'0 0.0
2016-Jun-18 13:30N 39°44' E 119°51'0 0.0
2016-Jun-18 12:30N 39°44' E 119°51'0 0.1
2016-Jun-18 11:24N 39°44' E 119°51'0 0.2
2016-Jun-18 10:30N 39°44' E 119°51'0 0.2
2016-Jun-18 09:18N 39°44' E 119°51'0 0.0
2016-Jun-18 08:12N 39°44' E 119°51'0 0.1
2016-Jun-18 07:30N 39°44' E 119°51'0 0.0
2016-Jun-18 06:30N 39°44' E 119°51'0 0.0
2016-Jun-18 05:24N 39°44' E 119°51'0 0.1
2016-Jun-18 04:30N 39°44' E 119°51'0 0.0
2016-Jun-18 03:30N 39°44' E 119°51'0 0.2
2016-Jun-18 02:30N 39°44' E 119°51'0 0.2
2016-Jun-18 01:24N 39°44' E 119°51'  

Dump ship's entire track history